createdAt,value
2022-12-09T00:01:11.785Z,39.67
2022-12-09T00:03:39.187Z,30.88
2022-12-09T00:06:10.898Z,31.00
2022-12-09T00:08:37.899Z,39.97
2022-12-09T00:11:05.705Z,34.28
2022-12-09T00:13:33.085Z,30.02
2022-12-09T00:16:00.027Z,34.60
2022-12-09T00:18:26.918Z,36.80
2022-12-09T00:20:53.909Z,32.33
2022-12-09T00:23:20.525Z,39.20
2022-12-09T00:25:47.489Z,41.13
2022-12-09T00:28:14.319Z,33.17
2022-12-09T00:30:41.173Z,34.10
2022-12-09T00:33:08.134Z,29.83
2022-12-09T00:35:34.846Z,30.85
2022-12-09T00:38:01.910Z,34.17
2022-12-09T00:40:28.651Z,33.92
2022-12-09T00:42:55.714Z,35.42
2022-12-09T00:45:22.527Z,35.47
2022-12-09T00:47:49.332Z,31.42
2022-12-09T00:50:16.468Z,33.85
2022-12-09T00:52:43.315Z,35.97
2022-12-09T00:55:10.200Z,32.92
2022-12-09T00:57:37.100Z,33.50
2022-12-09T01:00:05.335Z,36.85
2022-12-09T01:02:32.987Z,32.60
2022-12-09T01:05:00.060Z,34.47
2022-12-09T01:07:27.030Z,34.47
2022-12-09T01:09:53.657Z,34.20
2022-12-09T01:12:20.606Z,29.52
2022-12-09T01:14:47.309Z,33.70
2022-12-09T01:17:14.354Z,38.05
2022-12-09T01:19:41.368Z,35.08
2022-12-09T01:22:08.391Z,36.50
2022-12-09T01:24:35.633Z,32.15
2022-12-09T01:27:02.454Z,30.95
2022-12-09T01:29:29.383Z,36.08
2022-12-09T01:31:56.440Z,35.65
2022-12-09T01:34:23.206Z,35.05
2022-12-09T01:36:50.120Z,34.75
2022-12-09T01:39:16.922Z,39.88
2022-12-09T01:41:44.156Z,35.55
2022-12-09T01:44:13.111Z,37.55
2022-12-09T01:46:40.436Z,32.88
2022-12-09T01:49:09.501Z,35.92
2022-12-09T01:51:38.180Z,32.75
2022-12-09T01:54:05.150Z,35.65
2022-12-09T01:56:36.161Z,34.78
2022-12-09T01:59:09.016Z,39.75
2022-12-09T02:01:36.801Z,39.50
2022-12-09T02:04:04.346Z,39.83
2022-12-09T02:06:31.666Z,39.53
2022-12-09T02:08:59.648Z,32.65
2022-12-09T02:11:35.809Z,37.40
2022-12-09T02:14:26.876Z,35.67
2022-12-09T02:17:13.937Z,41.35
2022-12-09T02:20:15.139Z,48.80
2022-12-09T02:23:11.099Z,38.88
2022-12-09T02:25:48.761Z,40.70
2022-12-09T02:28:30.906Z,41.67
2022-12-09T02:31:35.320Z,44.50
2022-12-09T02:34:05.516Z,49.88
2022-12-09T02:36:45.819Z,45.63
2022-12-09T02:39:12.852Z,43.85
2022-12-09T02:41:45.576Z,44.30
2022-12-09T02:44:20.726Z,49.78
2022-12-09T02:46:48.904Z,40.60
2022-12-09T02:49:16.413Z,44.10
2022-12-09T02:51:45.744Z,41.70
2022-12-09T02:54:16.556Z,41.58
2022-12-09T02:56:55.746Z,41.67
2022-12-09T02:59:22.693Z,47.53
2022-12-09T03:02:06.408Z,41.63
2022-12-09T03:04:33.244Z,44.80
2022-12-09T03:07:44.227Z,44.08
2022-12-09T03:10:23.006Z,46.25
2022-12-09T03:12:55.688Z,47.75
2022-12-09T03:15:27.120Z,42.83
2022-12-09T03:17:56.651Z,46.33
2022-12-09T03:20:28.909Z,55.47
2022-12-09T03:23:00.800Z,49.15
2022-12-09T03:25:50.826Z,48.10
2022-12-09T03:28:23.091Z,50.55
2022-12-09T03:33:21.301Z,53.78
2022-12-09T03:35:55.997Z,46.20
2022-12-09T03:38:25.970Z,49.35
2022-12-09T03:41:07.710Z,50.80
2022-12-09T03:43:40.014Z,50.15
2022-12-09T03:46:07.126Z,43.88
2022-12-09T03:48:34.571Z,44.22
2022-12-09T03:51:14.357Z,45.22
2022-12-09T03:53:46.729Z,45.92
2022-12-09T03:56:21.780Z,48.55
2022-12-09T03:58:52.161Z,46.22
2022-12-09T04:01:20.091Z,46.88
2022-12-09T04:03:53.153Z,48.38
2022-12-09T04:06:41.717Z,44.92
2022-12-09T04:09:12.084Z,46.38
2022-12-09T04:11:38.771Z,43.60
2022-12-09T04:14:09.143Z,49.20
2022-12-09T04:16:39.439Z,47.30
2022-12-09T04:19:06.389Z,57.42
2022-12-09T04:21:33.143Z,53.47
2022-12-09T04:24:00.260Z,53.78
2022-12-09T04:26:26.991Z,50.22
2022-12-09T04:28:53.873Z,57.97
2022-12-09T04:31:20.734Z,50.78
2022-12-09T04:33:48.054Z,54.50
2022-12-09T04:36:18.721Z,52.20
2022-12-09T04:38:46.005Z,55.05
2022-12-09T04:41:14.554Z,58.47
2022-12-09T04:43:41.681Z,52.78
2022-12-09T04:46:12.793Z,50.30
2022-12-09T04:48:39.885Z,53.58
2022-12-09T04:51:14.903Z,54.40
2022-12-09T04:53:42.658Z,55.80
2022-12-09T04:56:16.557Z,56.15
2022-12-09T04:58:45.064Z,61.10
2022-12-09T05:01:17.184Z,58.03
2022-12-09T05:03:49.232Z,51.90
2022-12-09T05:06:17.161Z,56.15
2022-12-09T05:08:45.270Z,57.63
2022-12-09T05:11:14.867Z,53.22
2022-12-09T05:13:43.676Z,55.25
2022-12-09T05:16:16.379Z,56.78
2022-12-09T05:18:45.757Z,55.28
2022-12-09T05:21:16.522Z,59.90
2022-12-09T05:23:43.856Z,59.33
2022-12-09T05:26:13.838Z,52.65
2022-12-09T05:28:41.634Z,56.58
2022-12-09T05:31:12.226Z,52.10
2022-12-09T05:33:39.618Z,50.25
2022-12-09T05:36:13.755Z,52.25
2022-12-09T05:38:41.118Z,56.20
2022-12-09T05:41:08.311Z,45.15
2022-12-09T05:43:36.898Z,54.47
2022-12-09T05:46:04.939Z,58.78
2022-12-09T05:48:32.031Z,55.47
2022-12-09T05:51:06.649Z,56.08
2022-12-09T05:53:34.632Z,57.95
2022-12-09T05:56:02.337Z,60.75
2022-12-09T05:58:30.279Z,61.25
2022-12-09T06:01:04.291Z,56.13
2022-12-09T06:03:31.482Z,65.45
2022-12-09T06:05:58.751Z,59.53
2022-12-09T06:08:26.130Z,55.92
2022-12-09T06:10:53.110Z,49.60
2022-12-09T06:13:19.990Z,53.55
2022-12-09T06:15:47.191Z,47.55
2022-12-09T06:18:15.196Z,57.65
2022-12-09T06:20:42.471Z,61.65
2022-12-09T06:23:09.667Z,62.92
2022-12-09T06:25:36.887Z,67.03
2022-12-09T06:28:04.689Z,59.13
2022-12-09T06:30:31.963Z,52.92
2022-12-09T06:33:00.036Z,62.85
2022-12-09T06:35:27.695Z,52.63
2022-12-09T06:37:54.727Z,106.55
2022-12-09T06:40:24.848Z,182.48
2022-12-09T06:42:52.534Z,214.23
2022-12-09T06:45:20.101Z,138.90
2022-12-09T06:47:47.830Z,143.82
2022-12-09T06:50:16.241Z,151.10
2022-12-09T06:52:43.040Z,135.07
2022-12-09T06:55:11.296Z,104.07
2022-12-09T06:57:38.864Z,118.20
2022-12-09T07:00:07.121Z,122.43
2022-12-09T07:02:36.770Z,145.75
2022-12-09T07:05:04.605Z,126.57
2022-12-09T07:07:31.675Z,103.63
2022-12-09T07:09:59.558Z,106.60
2022-12-09T07:12:26.618Z,119.68
2022-12-09T07:14:53.630Z,71.35
2022-12-09T07:17:21.654Z,60.30
2022-12-09T07:19:49.117Z,56.55
2022-12-09T07:22:15.987Z,55.10
2022-12-09T07:24:44.587Z,50.10
2022-12-09T07:27:19.415Z,56.72
2022-12-09T07:29:47.300Z,69.18
2022-12-09T07:32:14.808Z,59.92
2022-12-09T07:34:42.122Z,65.85
2022-12-09T07:37:09.238Z,55.47
2022-12-09T07:39:36.313Z,55.22
2022-12-09T07:42:03.837Z,44.72
2022-12-09T07:44:31.099Z,47.25
2022-12-09T07:46:58.535Z,49.58
2022-12-09T07:49:26.620Z,54.72
2022-12-09T07:51:53.592Z,47.67
2022-12-09T07:54:22.008Z,68.38
2022-12-09T07:56:49.426Z,57.30
2022-12-09T07:59:16.495Z,57.47
2022-12-09T08:01:44.561Z,49.25
2022-12-09T08:04:12.240Z,55.20
2022-12-09T08:06:40.244Z,48.17
2022-12-09T08:09:11.298Z,58.50
2022-12-09T08:11:38.649Z,53.35
2022-12-09T08:14:12.181Z,50.63
2022-12-09T08:16:40.875Z,55.03
2022-12-09T08:19:08.992Z,54.05
2022-12-09T08:21:36.116Z,59.05
2022-12-09T08:24:05.923Z,48.45
2022-12-09T08:26:34.514Z,47.05
2022-12-09T08:29:01.927Z,42.38
2022-12-09T08:31:29.916Z,46.70
2022-12-09T08:33:58.003Z,43.10
2022-12-09T08:36:28.374Z,43.92
2022-12-09T08:38:58.075Z,44.17
2022-12-09T08:41:36.911Z,47.40
2022-12-09T08:44:18.693Z,40.38
2022-12-09T08:46:48.428Z,43.13
2022-12-09T08:49:20.285Z,46.05
2022-12-09T08:51:52.558Z,46.20
2022-12-09T08:56:48.605Z,43.10
2022-12-09T08:59:16.907Z,45.60
2022-12-09T09:01:45.675Z,47.28
2022-12-09T09:04:15.323Z,49.92
2022-12-09T09:06:45.261Z,44.50
2022-12-09T09:09:14.280Z,48.08
2022-12-09T09:11:43.018Z,40.63
2022-12-09T09:14:12.500Z,50.10
2022-12-09T09:16:42.314Z,56.67
2022-12-09T09:19:15.836Z,51.83
2022-12-09T09:21:43.175Z,51.03
2022-12-09T09:24:12.143Z,52.97
2022-12-09T09:26:41.630Z,45.50
2022-12-09T09:29:11.829Z,52.65
2022-12-09T09:31:39.111Z,49.20
2022-12-09T09:34:06.455Z,50.30
2022-12-09T09:36:33.542Z,54.90
2022-12-09T09:39:00.397Z,46.13
2022-12-09T09:41:48.741Z,44.33
2022-12-09T09:44:36.105Z,59.35
2022-12-09T09:47:14.003Z,39.83
2022-12-09T09:49:53.881Z,39.75
2022-12-09T09:52:23.496Z,56.17
2022-12-09T09:54:52.001Z,47.65
2022-12-09T09:57:40.547Z,37.42
2022-12-09T10:00:38.843Z,44.92
2022-12-09T10:03:36.045Z,41.67
2022-12-09T10:06:12.852Z,45.72
2022-12-09T10:09:11.411Z,52.80
2022-12-09T10:11:48.184Z,48.00
2022-12-09T10:14:27.439Z,43.78
2022-12-09T10:17:13.747Z,42.90
2022-12-09T10:19:46.916Z,37.00
2022-12-09T10:22:25.653Z,32.55
2022-12-09T10:24:59.033Z,41.22
2022-12-09T10:27:35.767Z,37.42
2022-12-09T10:30:13.845Z,45.05
2022-12-09T10:32:42.205Z,27.98
2022-12-09T10:35:28.728Z,43.58
2022-12-09T10:38:04.932Z,38.13
2022-12-09T10:40:36.276Z,52.03
2022-12-09T10:43:41.970Z,45.97
2022-12-09T10:46:22.931Z,49.17
2022-12-09T10:48:50.532Z,49.00
2022-12-09T10:51:17.693Z,45.60
2022-12-09T10:54:12.726Z,32.08
2022-12-09T10:57:06.260Z,30.55
2022-12-09T10:59:34.685Z,42.60
2022-12-09T11:02:06.447Z,41.38
2022-12-09T11:07:06.814Z,37.95
2022-12-09T11:09:38.657Z,46.17
2022-12-09T11:12:10.127Z,33.50
2022-12-09T11:14:40.567Z,38.30
2022-12-09T11:17:21.728Z,38.95
2022-12-09T11:20:16.146Z,49.78
2022-12-09T11:22:45.035Z,35.78
2022-12-09T11:25:17.536Z,39.05
2022-12-09T11:27:50.251Z,47.38
2022-12-09T11:30:21.928Z,34.55
2022-12-09T11:33:13.467Z,36.50
2022-12-09T11:35:44.062Z,58.60
2022-12-09T11:38:31.785Z,31.67
2022-12-09T11:41:44.406Z,46.22
2022-12-09T11:44:35.110Z,33.15
2022-12-09T11:47:08.232Z,51.22
2022-12-09T11:49:45.705Z,47.08
2022-12-09T11:52:18.530Z,50.55
2022-12-09T11:54:53.904Z,51.25
2022-12-09T11:57:38.881Z,47.28
2022-12-09T12:00:24.031Z,57.90
2022-12-09T12:03:12.122Z,59.88
2022-12-09T12:05:44.249Z,55.15
2022-12-09T12:08:29.873Z,55.30
2022-12-09T12:11:13.456Z,51.80
2022-12-09T12:13:46.172Z,50.78
2022-12-09T12:16:32.481Z,50.75
2022-12-09T12:19:05.634Z,39.13
2022-12-09T12:21:41.326Z,42.15
2022-12-09T12:24:31.291Z,46.95
2022-12-09T12:27:17.579Z,40.90
2022-12-09T12:29:44.210Z,42.60
2022-12-09T12:32:29.268Z,54.20
2022-12-09T12:35:10.726Z,56.80
2022-12-09T12:37:59.228Z,42.75
2022-12-09T12:40:54.882Z,40.70
2022-12-09T12:44:05.696Z,48.03
2022-12-09T12:46:50.507Z,33.47
2022-12-09T12:49:26.103Z,40.85
2022-12-09T12:51:58.932Z,37.65
2022-12-09T12:54:44.322Z,39.63
2022-12-09T12:57:38.683Z,32.78
2022-12-09T13:00:28.384Z,45.03
2022-12-09T13:03:38.906Z,36.72
2022-12-09T13:06:12.360Z,52.67
2022-12-09T13:08:48.776Z,41.75
2022-12-09T13:11:56.410Z,49.05
2022-12-09T13:14:36.773Z,43.70
2022-12-09T13:17:07.590Z,36.25
2022-12-09T13:19:45.781Z,51.28
2022-12-09T13:22:41.613Z,56.80
2022-12-09T13:25:48.710Z,56.70
2022-12-09T13:28:25.306Z,62.67
2022-12-09T13:30:56.768Z,48.60
2022-12-09T13:33:47.894Z,48.10
2022-12-09T13:36:47.250Z,44.00
2022-12-09T13:39:39.569Z,42.83
2022-12-09T13:42:46.707Z,45.47
2022-12-09T13:45:44.833Z,44.60
2022-12-09T13:48:16.631Z,45.88
2022-12-09T13:50:59.548Z,49.42
2022-12-09T13:53:46.071Z,36.88
2022-12-09T13:56:16.386Z,41.97
2022-12-09T13:58:58.097Z,43.00
2022-12-09T14:01:48.262Z,35.05
2022-12-09T14:04:29.183Z,43.08
2022-12-09T14:07:41.889Z,63.65
2022-12-09T14:10:40.481Z,46.13
2022-12-09T14:13:25.384Z,38.03
2022-12-09T14:16:30.276Z,46.58
2022-12-09T14:18:57.717Z,39.58
2022-12-09T14:21:30.634Z,36.97
2022-12-09T14:24:20.196Z,37.30
2022-12-09T14:27:12.476Z,34.17
2022-12-09T14:29:57.406Z,38.78
2022-12-09T14:32:25.650Z,40.45
2022-12-09T14:35:15.664Z,33.38
2022-12-09T14:38:19.962Z,35.67
2022-12-09T14:41:15.266Z,30.52
2022-12-09T14:43:59.656Z,53.05
2022-12-09T14:46:49.242Z,46.38
2022-12-09T14:49:29.557Z,40.17
2022-12-09T14:52:01.413Z,40.50
2022-12-09T14:54:35.098Z,46.00
2022-12-09T14:57:07.041Z,32.22
2022-12-09T14:59:35.647Z,30.73
2022-12-09T15:02:09.821Z,29.35
2022-12-09T15:04:47.549Z,52.85
2022-12-09T15:07:23.309Z,23.38
2022-12-09T15:09:51.313Z,31.05
2022-12-09T15:12:20.926Z,36.10
2022-12-09T15:14:52.929Z,25.75
2022-12-09T15:17:27.552Z,26.05
2022-12-09T15:20:02.315Z,36.50
2022-12-09T15:22:31.796Z,39.63
2022-12-09T15:24:58.897Z,33.80
2022-12-09T15:27:26.392Z,31.55
2022-12-09T15:29:53.567Z,34.47
2022-12-09T15:32:29.891Z,37.45
2022-12-09T15:35:14.652Z,28.75
2022-12-09T15:37:41.652Z,41.50
2022-12-09T15:40:12.835Z,38.83
2022-12-09T15:42:56.262Z,38.47
2022-12-09T15:45:28.849Z,36.05
2022-12-09T15:48:02.248Z,32.53
2022-12-09T15:50:38.374Z,44.10
2022-12-09T15:53:10.178Z,43.47
2022-12-09T15:55:51.214Z,35.97
2022-12-09T15:58:23.318Z,34.60
2022-12-09T16:00:51.869Z,48.80
2022-12-09T16:03:21.567Z,32.63
2022-12-09T16:06:01.169Z,31.70
2022-12-09T16:08:40.286Z,30.73
2022-12-09T16:11:08.025Z,35.50
2022-12-09T16:13:35.320Z,36.10
2022-12-09T16:16:23.970Z,30.90
2022-12-09T16:18:50.769Z,33.58
2022-12-09T16:21:36.789Z,32.55
2022-12-09T16:24:11.701Z,30.92
2022-12-09T16:26:44.689Z,49.13
2022-12-09T16:29:28.854Z,36.92
2022-12-09T16:32:14.280Z,47.17
2022-12-09T16:34:40.950Z,33.90
2022-12-09T16:37:32.944Z,27.58
2022-12-09T16:40:00.342Z,26.73
2022-12-09T16:42:32.444Z,30.73
2022-12-09T16:45:23.975Z,40.33
2022-12-09T16:47:55.191Z,28.08
2022-12-09T16:50:26.273Z,39.90
2022-12-09T16:52:53.345Z,32.28
2022-12-09T16:55:26.541Z,29.20
2022-12-09T16:57:54.131Z,37.55
2022-12-09T17:00:21.760Z,24.52
2022-12-09T17:03:04.774Z,49.95
2022-12-09T17:05:31.874Z,37.55
2022-12-09T17:07:58.810Z,25.88
2022-12-09T17:10:25.904Z,36.67
2022-12-09T17:12:52.621Z,29.25
2022-12-09T17:15:20.893Z,42.95
2022-12-09T17:17:49.100Z,42.97
2022-12-09T17:20:16.392Z,29.65
2022-12-09T17:22:43.115Z,30.67
2022-12-09T17:25:10.536Z,31.75
2022-12-09T17:27:37.812Z,38.78
2022-12-09T17:30:05.670Z,36.90
2022-12-09T17:32:32.789Z,39.13
2022-12-09T17:34:59.351Z,28.73
2022-12-09T17:37:26.194Z,34.90
2022-12-09T17:39:56.902Z,27.75
2022-12-09T17:42:26.767Z,27.77
2022-12-09T17:44:53.522Z,38.72
2022-12-09T17:47:20.224Z,48.20
2022-12-09T17:49:46.996Z,44.53
2022-12-09T17:52:14.490Z,37.00
2022-12-09T17:54:41.457Z,30.92
2022-12-09T17:57:08.199Z,32.95
2022-12-09T17:59:35.033Z,36.72
2022-12-09T18:02:03.640Z,39.20
2022-12-09T18:04:31.345Z,25.48
2022-12-09T18:06:58.030Z,34.42
2022-12-09T18:09:24.990Z,48.15
2022-12-09T18:11:51.962Z,34.08
2022-12-09T18:14:19.261Z,31.77
2022-12-09T18:16:46.658Z,37.30
2022-12-09T18:19:16.634Z,38.22
2022-12-09T18:21:44.331Z,30.13
2022-12-09T18:24:11.167Z,27.00
2022-12-09T18:26:41.561Z,30.90
2022-12-09T18:29:10.422Z,36.28
2022-12-09T18:31:37.295Z,25.73
2022-12-09T18:34:04.219Z,23.75
2022-12-09T18:36:31.103Z,34.53
2022-12-09T18:39:00.539Z,29.92
2022-12-09T18:41:29.710Z,32.08
2022-12-09T18:43:58.617Z,28.55
2022-12-09T18:46:28.284Z,21.13
2022-12-09T18:48:58.559Z,25.98
2022-12-09T18:51:26.472Z,34.30
2022-12-09T18:53:53.813Z,32.35
2022-12-09T18:56:20.563Z,39.88
2022-12-09T18:59:06.004Z,33.33
2022-12-09T19:01:34.338Z,31.35
2022-12-09T19:04:03.129Z,29.70
2022-12-09T19:06:31.500Z,25.08
2022-12-09T19:09:00.656Z,54.97
2022-12-09T19:11:30.423Z,34.17
2022-12-09T19:13:57.445Z,29.10
2022-12-09T19:16:26.084Z,31.63
2022-12-09T19:18:56.356Z,31.45
2022-12-09T19:21:24.944Z,33.55
2022-12-09T19:23:52.162Z,25.23
2022-12-09T19:26:22.468Z,32.97
2022-12-09T19:28:52.979Z,25.95
2022-12-09T19:31:36.169Z,32.55
2022-12-09T19:34:07.325Z,30.42
2022-12-09T19:36:34.481Z,25.15
2022-12-09T19:39:03.424Z,32.97
2022-12-09T19:41:30.093Z,48.00
2022-12-09T19:43:58.372Z,21.77
2022-12-09T19:46:26.708Z,25.80
2022-12-09T19:48:54.130Z,23.83
2022-12-09T19:51:21.868Z,25.98
2022-12-09T19:53:49.144Z,28.15
2022-12-09T19:56:19.560Z,33.53
2022-12-09T19:58:48.117Z,57.47
2022-12-09T20:01:23.496Z,30.55
2022-12-09T20:03:52.456Z,33.03
2022-12-09T20:06:21.450Z,29.63
2022-12-09T20:08:48.759Z,28.38
2022-12-09T20:11:19.354Z,38.83
2022-12-09T20:13:46.973Z,29.27
2022-12-09T20:16:17.171Z,26.05
2022-12-09T20:18:44.088Z,32.85
2022-12-09T20:21:13.416Z,32.10
2022-12-09T20:23:42.088Z,28.48
2022-12-09T20:26:15.393Z,37.30
2022-12-09T20:28:44.222Z,33.90
2022-12-09T20:31:13.868Z,35.08
2022-12-09T20:33:41.740Z,33.78
2022-12-09T20:36:11.347Z,47.08
2022-12-09T20:38:38.530Z,48.22
2022-12-09T20:41:07.093Z,46.92
2022-12-09T20:43:39.485Z,43.97
2022-12-09T20:46:08.066Z,44.58
2022-12-09T20:48:36.277Z,38.00
2022-12-09T20:51:09.448Z,30.10
2022-12-09T20:53:36.599Z,34.05
2022-12-09T20:56:04.305Z,27.50
2022-12-09T20:58:31.757Z,25.90
2022-12-09T21:01:06.247Z,27.67
2022-12-09T21:03:32.896Z,31.80
2022-12-09T21:05:59.695Z,31.10
2022-12-09T21:08:31.411Z,37.15
2022-12-09T21:13:38.206Z,31.02
2022-12-09T21:16:10.785Z,24.67
2022-12-09T21:18:38.006Z,24.85
2022-12-09T21:21:06.377Z,29.67
2022-12-09T21:23:35.663Z,34.60
2022-12-09T21:26:07.663Z,30.92
2022-12-09T21:28:36.052Z,31.73
2022-12-09T21:31:11.034Z,41.42
2022-12-09T21:33:38.326Z,27.70
2022-12-09T21:36:07.522Z,28.70
2022-12-09T21:38:35.137Z,28.88
2022-12-09T21:41:03.927Z,37.65
2022-12-09T21:43:32.233Z,26.55
2022-12-09T21:46:06.281Z,23.63
2022-12-09T21:48:33.295Z,26.15
2022-12-09T21:51:02.028Z,22.63
2022-12-09T21:53:29.836Z,22.10
2022-12-09T21:56:05.605Z,27.35
2022-12-09T21:58:33.141Z,38.13
2022-12-09T22:01:02.106Z,39.38
2022-12-09T22:03:29.175Z,34.90
2022-12-09T22:05:58.915Z,15.85
2022-12-09T22:08:25.725Z,39.13
2022-12-09T22:10:53.124Z,35.72
2022-12-09T22:13:20.055Z,41.80
2022-12-09T22:15:47.775Z,35.17
2022-12-09T22:18:16.320Z,40.00
2022-12-09T22:23:30.605Z,36.15
2022-12-09T22:25:57.335Z,29.23
2022-12-09T22:28:23.997Z,41.22
2022-12-09T22:30:51.683Z,32.15
2022-12-09T22:33:18.512Z,32.00
2022-12-09T22:35:59.459Z,30.95
2022-12-09T22:38:27.536Z,34.85
2022-12-09T22:40:55.338Z,28.58
2022-12-09T22:43:22.129Z,17.67
2022-12-09T22:45:51.135Z,27.35
2022-12-09T22:48:18.796Z,19.90
2022-12-09T22:50:45.883Z,29.52
2022-12-09T22:53:12.878Z,26.17
2022-12-09T22:55:46.612Z,32.15
2022-12-09T22:58:14.364Z,23.58
2022-12-09T23:00:41.866Z,25.60
2022-12-09T23:03:08.766Z,25.60
2022-12-09T23:05:37.926Z,25.70
2022-12-09T23:08:05.842Z,20.13
2022-12-09T23:10:33.443Z,25.92
2022-12-09T23:13:04.071Z,26.00
2022-12-09T23:15:30.951Z,20.17
2022-12-09T23:17:57.568Z,18.02
2022-12-09T23:20:25.149Z,26.15
2022-12-09T23:22:51.762Z,24.77
2022-12-09T23:25:20.063Z,22.40
2022-12-09T23:27:47.791Z,31.75
2022-12-09T23:30:15.242Z,32.80
2022-12-09T23:32:43.114Z,21.70
2022-12-09T23:35:10.477Z,24.88
2022-12-09T23:37:37.494Z,22.75
2022-12-09T23:40:04.673Z,29.00
2022-12-09T23:42:31.847Z,19.02
2022-12-09T23:44:58.547Z,27.80
2022-12-09T23:47:25.233Z,27.08
2022-12-09T23:49:51.776Z,19.35
2022-12-09T23:52:18.666Z,17.98
2022-12-09T23:54:45.355Z,25.70
2022-12-09T23:57:12.188Z,29.63
2022-12-09T23:59:40.111Z,28.85
